Terminal Aerodrome Forecast
Issued by NWS Jackson, KY

Home | Current Version | Previous Version | Text Only | Print | Product List | Glossary On
Versions: 1 2 3 4 5 6 7 8 9 10 11 12 13 14 15 16 17 18 19 20 21
740
FTUS43 KJKL 141120
TAFJKL
TAF
KJKL 141120Z 1412/1512 08003KT P6SM OVC070
     FM142000 11004KT 5SM -SN OVC030
     FM142300 14005KT 1SM -SN OVC008=

USA.gov is the U.S. government's official web portal to all federal, state and local government web resources and services.